Time,TemperatureF,DewpointF,PressureIn,WindDirection,WindDirectionDegrees,WindSpeedMPH,WindSpeedGustMPH,Humidity,HourlyPrecipIn,Conditions,Clouds,dailyrainin,SoftwareType,DateUTC
2013-08-17 00:00:00,76.9,76.0,30.08,SW,215,0.0,0.0,97,0.00,RA,,0.00,WeatherDisplay:10.37,2013-08-17 04:00:00,
2013-08-17 00:15:00,76.8,76.2,30.08,SW,215,0.0,0.0,98,0.00,CLR,,0.00,WeatherDisplay:10.37,2013-08-17 04:15:00,
2013-08-17 00:30:00,76.6,76.0,30.08,SW,215,0.0,0.0,98,0.00,CLR,,0.00,WeatherDisplay:10.37,2013-08-17 04:30:00,
2013-08-17 00:45:00,76.4,75.8,30.08,SW,215,0.0,0.0,98,0.00,CLR,,0.00,WeatherDisplay:10.37,2013-08-17 04:45:00,
2013-08-17 01:00:00,76.5,75.9,30.08,SW,215,0.0,0.0,98,0.00,CLR,,0.00,WeatherDisplay:10.37,2013-08-17 05:00:00,
2013-08-17 01:15:00,76.6,76.0,30.08,SW,215,0.0,0.0,98,0.00,CLR,,0.00,WeatherDisplay:10.37,2013-08-17 05:15:00,
2013-08-17 01:30:00,76.4,75.8,30.08,SW,215,0.0,0.0,98,0.00,CLR,,0.00,WeatherDisplay:10.37,2013-08-17 05:30:00,
2013-08-17 01:45:00,76.3,75.7,30.07,SW,215,0.0,0.0,98,0.00,CLR,,0.00,WeatherDisplay:10.37,2013-08-17 05:45:00,
2013-08-17 02:00:00,76.3,75.7,30.07,SW,215,0.0,0.0,98,0.00,CLR,,0.00,WeatherDisplay:10.37,2013-08-17 06:00:00,
2013-08-17 02:15:00,76.3,75.7,30.06,SW,215,0.0,0.0,98,0.00,CLR,,0.00,WeatherDisplay:10.37,2013-08-17 06:15:00,
2013-08-17 02:30:00,76.3,75.7,30.07,SW,215,0.0,0.0,98,0.00,CLR,,0.00,WeatherDisplay:10.37,2013-08-17 06:30:00,
2013-08-17 02:45:00,76.5,76.2,30.07,SW,215,0.0,0.0,99,0.00,CLR,,0.00,WeatherDisplay:10.37,2013-08-17 06:45:00,
2013-08-17 03:00:00,76.7,76.4,30.07,SW,215,0.0,0.0,99,0.00,CLR,,0.00,WeatherDisplay:10.37,2013-08-17 07:00:00,
2013-08-17 03:15:00,76.7,76.4,30.06,SW,215,0.0,0.0,99,0.00,CLR,,0.00,WeatherDisplay:10.37,2013-08-17 07:15:00,
2013-08-17 03:30:00,76.6,76.3,30.06,SW,215,0.0,0.0,99,0.00,CLR,,0.00,WeatherDisplay:10.37,2013-08-17 07:30:00,
2013-08-17 03:45:00,76.6,76.3,30.06,SW,215,0.0,0.0,99,0.00,CLR,,0.00,WeatherDisplay:10.37,2013-08-17 07:45:00,
2013-08-17 04:00:00,76.5,76.2,30.06,SW,215,0.0,0.0,99,0.00,CLR,,0.00,WeatherDisplay:10.37,2013-08-17 08:00:00,
2013-08-17 04:15:00,76.4,76.1,30.05,SW,215,0.0,0.0,99,0.00,CLR,,0.00,WeatherDisplay:10.37,2013-08-17 08:15:00,
2013-08-17 04:30:00,76.3,76.0,30.05,SW,215,0.0,0.0,99,0.00,CLR,,0.00,WeatherDisplay:10.37,2013-08-17 08:30:00,
2013-08-17 04:45:00,76.2,75.6,30.04,SW,215,0.0,0.0,98,0.00,CLR,,0.00,WeatherDisplay:10.37,2013-08-17 08:45:00,
2013-08-17 05:00:00,76.2,75.9,30.04,SW,215,0.0,0.0,99,0.00,CLR,,0.00,WeatherDisplay:10.37,2013-08-17 09:00:00,
2013-08-17 05:15:00,76.2,75.9,30.03,SW,215,0.0,0.0,99,0.00,CLR,,0.00,WeatherDisplay:10.37,2013-08-17 09:15:00,
2013-08-17 05:30:00,76.1,75.8,30.03,SW,215,0.0,0.0,99,0.00,CLR,,0.00,WeatherDisplay:10.37,2013-08-17 09:30:00,
2013-08-17 05:45:00,75.8,75.5,30.03,SW,215,0.0,0.0,99,0.00,CLR,,0.00,WeatherDisplay:10.37,2013-08-17 09:45:00,
2013-08-17 06:00:00,75.7,75.4,30.03,SW,215,0.0,0.0,99,0.00,CLR,,0.00,WeatherDisplay:10.37,2013-08-17 10:00:00,
2013-08-17 06:15:00,75.7,75.4,30.04,SW,215,0.0,0.0,99,0.00,CLR,,0.00,WeatherDisplay:10.37,2013-08-17 10:15:00,
2013-08-17 06:30:00,75.8,75.5,30.05,SW,215,0.0,0.0,99,0.00,CLR,,0.00,WeatherDisplay:10.37,2013-08-17 10:30:00,
2013-08-17 06:45:00,75.7,75.4,30.06,SW,215,0.0,0.0,99,0.00,CLR,,0.00,WeatherDisplay:10.37,2013-08-17 10:45:00,
2013-08-17 07:00:00,75.7,75.4,30.07,SW,215,0.0,0.0,99,0.00,CLR,,0.00,WeatherDisplay:10.37,2013-08-17 11:00:00,
2013-08-17 07:15:00,75.7,75.4,30.07,SW,215,0.0,0.0,99,0.00,CLR,,0.00,WeatherDisplay:10.37,2013-08-17 11:15:00,
2013-08-17 07:30:00,75.8,75.5,30.08,SW,215,0.0,0.0,99,0.00,CLR,,0.00,WeatherDisplay:10.37,2013-08-17 11:30:00,
2013-08-17 07:45:00,76.1,75.8,30.08,SW,215,0.0,0.0,99,0.00,CLR,,0.00,WeatherDisplay:10.37,2013-08-17 11:45:00,
2013-08-17 08:00:00,76.7,76.4,30.08,SW,215,0.0,0.0,99,0.00,CLR,,0.00,WeatherDisplay:10.37,2013-08-17 12:00:00,
2013-08-17 08:15:00,77.3,76.9,30.08,SW,215,0.0,0.0,99,0.00,CLR,,0.00,WeatherDisplay:10.37,2013-08-17 12:15:00,
2013-08-17 08:30:00,78.2,77.9,30.08,SW,216,0.0,0.0,99,0.00,CLR,,0.00,WeatherDisplay:10.37,2013-08-17 12:30:00,
2013-08-17 08:45:00,78.8,78.5,30.07,SW,216,0.0,0.0,99,0.00,CLR,,0.00,WeatherDisplay:10.37,2013-08-17 12:45:00,
2013-08-17 09:00:00,79.5,78.2,30.08,SW,215,0.0,0.0,96,0.00,CLR,,0.00,WeatherDisplay:10.37,2013-08-17 13:00:00,
2013-08-17 09:15:00,80.1,78.2,30.09,SW,216,0.0,0.0,94,0.00,CLR,,0.00,WeatherDisplay:10.37,2013-08-17 13:15:00,
2013-08-17 09:30:00,80.7,78.5,30.09,SW,215,0.0,0.0,93,0.00,CLR,,0.00,WeatherDisplay:10.37,2013-08-17 13:30:00,
2013-08-17 09:45:00,80.8,78.3,30.10,SW,215,0.0,0.0,92,0.00,CLR,,0.00,WeatherDisplay:10.37,2013-08-17 13:45:00,
2013-08-17 10:00:00,80.7,78.5,30.11,SW,215,0.0,1.0,93,0.00,CLR,,0.00,WeatherDisplay:10.37,2013-08-17 14:00:00,
2013-08-17 10:15:00,80.5,78.3,30.11,SW,215,0.0,1.0,93,0.00,CLR,,0.00,WeatherDisplay:10.37,2013-08-17 14:15:00,
2013-08-17 10:30:00,80.0,77.4,30.11,South,183,3.0,9.0,92,0.01,RA,,0.01,WeatherDisplay:10.37,2013-08-17 14:30:00,
2013-08-17 10:45:00,78.0,75.8,30.11,SSE,152,1.0,7.0,93,0.00,CLR,,0.01,WeatherDisplay:10.37,2013-08-17 14:45:00,
2013-08-17 11:00:00,78.4,76.5,30.11,ENE,63,0.0,4.0,94,0.00,CLR,,0.01,WeatherDisplay:10.37,2013-08-17 15:00:00,
2013-08-17 11:15:00,79.0,76.8,30.10,SE,144,0.0,7.0,93,0.00,CLR,,0.01,WeatherDisplay:10.37,2013-08-17 15:15:00,
2013-08-17 11:30:00,79.3,76.8,30.10,SE,146,0.0,5.0,92,0.00,CLR,,0.01,WeatherDisplay:10.37,2013-08-17 15:30:00,
2013-08-17 11:45:00,80.3,77.1,30.09,East,98,0.0,5.0,90,0.00,CLR,,0.01,WeatherDisplay:10.37,2013-08-17 15:45:00,
2013-08-17 12:00:00,80.7,77.5,30.09,SE,140,0.0,4.0,90,0.00,CLR,,0.01,WeatherDisplay:10.37,2013-08-17 16:00:00,
2013-08-17 12:15:00,81.2,78.0,30.09,South,188,0.0,4.0,90,0.00,CLR,,0.01,WeatherDisplay:10.37,2013-08-17 16:15:00,
2013-08-17 12:30:00,81.9,78.3,30.09,South,187,0.0,1.0,89,0.00,CLR,,0.01,WeatherDisplay:10.37,2013-08-17 16:30:00,
2013-08-17 12:45:00,82.4,78.5,30.09,South,187,0.0,1.0,88,0.00,CLR,,0.01,WeatherDisplay:10.37,2013-08-17 16:45:00,
2013-08-17 13:00:00,83.1,78.5,30.09,South,187,0.0,3.0,86,0.00,CLR,,0.01,WeatherDisplay:10.37,2013-08-17 17:00:00,
2013-08-17 13:15:00,84.2,78.8,30.08,SSE,167,0.0,4.0,84,0.00,CLR,,0.01,WeatherDisplay:10.37,2013-08-17 17:15:00,
2013-08-17 13:30:00,85.0,79.6,30.08,SSE,167,0.0,4.0,84,0.00,CLR,,0.01,WeatherDisplay:10.37,2013-08-17 17:30:00,
2013-08-17 13:45:00,85.4,79.3,30.08,SSW,192,0.0,5.0,82,0.00,CLR,,0.01,WeatherDisplay:10.37,2013-08-17 17:45:00,
2013-08-17 14:00:00,86.4,79.5,30.08,South,190,0.0,5.0,80,0.00,CLR,,0.01,WeatherDisplay:10.37,2013-08-17 18:00:00,
2013-08-17 14:15:00,87.6,78.7,30.07,ESE,104,1.0,7.0,75,0.00,CLR,,0.01,WeatherDisplay:10.37,2013-08-17 18:15:00,
2013-08-17 14:30:00,88.3,79.3,30.06,ESE,102,2.0,5.0,75,0.00,CLR,,0.01,WeatherDisplay:10.37,2013-08-17 18:30:00,
2013-08-17 14:45:00,89.0,80.1,30.06,SSW,199,1.0,7.0,75,0.00,CLR,,0.01,WeatherDisplay:10.37,2013-08-17 18:45:00,
2013-08-17 15:00:00,89.3,79.9,30.05,ENE,73,1.0,7.0,74,0.00,CLR,,0.01,WeatherDisplay:10.37,2013-08-17 19:00:00,
2013-08-17 15:15:00,88.8,80.3,30.05,East,98,1.0,7.0,76,0.00,CLR,,0.01,WeatherDisplay:10.37,2013-08-17 19:15:00,
2013-08-17 15:30:00,89.3,79.9,30.05,East,100,0.0,7.0,74,0.00,CLR,,0.01,WeatherDisplay:10.37,2013-08-17 19:30:00,
2013-08-17 15:45:00,88.1,79.2,30.04,East,89,0.0,4.0,75,0.00,CLR,,0.01,WeatherDisplay:10.37,2013-08-17 19:45:00,
2013-08-17 16:00:00,87.1,79.8,30.04,SE,132,0.0,3.0,79,0.00,CLR,,0.01,WeatherDisplay:10.37,2013-08-17 20:00:00,
2013-08-17 16:15:00,87.3,80.4,30.03,SE,132,0.0,1.0,80,0.00,CLR,,0.01,WeatherDisplay:10.37,2013-08-17 20:15:00,
2013-08-17 16:30:00,88.8,79.8,30.03,SE,125,0.0,4.0,75,0.00,CLR,,0.01,WeatherDisplay:10.37,2013-08-17 20:30:00,
2013-08-17 16:45:00,90.5,79.8,30.02,South,175,1.0,8.0,71,0.00,CLR,,0.01,WeatherDisplay:10.37,2013-08-17 20:45:00,
2013-08-17 17:00:00,90.4,78.8,30.02,SSE,153,0.0,6.0,69,0.00,CLR,,0.01,WeatherDisplay:10.37,2013-08-17 21:00:00,
2013-08-17 17:15:00,90.5,79.0,30.02,ESE,121,1.0,8.0,69,0.00,CLR,,0.01,WeatherDisplay:10.37,2013-08-17 21:15:00,
2013-08-17 17:30:00,89.0,80.0,30.02,ESE,109,1.0,12.0,75,0.00,CLR,,0.01,WeatherDisplay:10.37,2013-08-17 21:30:00,
2013-08-17 17:45:00,87.6,79.1,30.02,ENE,77,2.0,10.0,76,0.00,CLR,,0.01,WeatherDisplay:10.37,2013-08-17 21:45:00,
2013-08-17 18:00:00,87.4,78.5,30.02,East,87,3.0,12.0,75,0.00,CLR,,0.01,WeatherDisplay:10.37,2013-08-17 22:00:00,
2013-08-17 18:15:00,85.4,78.1,30.03,ENE,70,3.0,12.0,79,0.00,CLR,,0.01,WeatherDisplay:10.37,2013-08-17 22:15:00,
2013-08-17 18:30:00,82.8,77.5,30.04,ENE,70,1.0,12.0,84,0.00,CLR,,0.01,WeatherDisplay:10.37,2013-08-17 22:30:00,
2013-08-17 18:45:00,80.9,77.0,30.04,East,89,1.0,9.0,88,0.00,CLR,,0.01,WeatherDisplay:10.37,2013-08-17 22:45:00,
2013-08-17 19:00:00,80.8,76.9,30.07,East,96,1.0,7.0,88,0.00,CLR,,0.01,WeatherDisplay:10.37,2013-08-17 23:00:00,
2013-08-17 19:15:00,80.1,76.6,30.11,West,268,0.0,4.0,89,0.04,RA,,0.05,WeatherDisplay:10.37,2013-08-17 23:15:00,
2013-08-17 19:30:00,77.8,75.3,30.10,NW,304,0.0,4.0,92,0.06,RA,,0.11,WeatherDisplay:10.37,2013-08-17 23:30:00,